sensor_id;sensor_type;location;lat;lon;timestamp;pressure;altitude;pressure_sealevel;temperature;humidity
36630;BME280;36256;42.154;23.002;2023-03-21T00:00:57;97011.41;;;10.67;68.79
36630;BME280;36256;42.154;23.002;2023-03-21T00:03:25;97010.78;;;10.63;69.14
36630;BME280;36256;42.154;23.002;2023-03-21T00:05:52;97004.63;;;10.46;68.89
36630;BME280;36256;42.154;23.002;2023-03-21T00:08:20;97016.81;;;10.52;71.10
36630;BME280;36256;42.154;23.002;2023-03-21T00:10:47;97015.84;;;10.46;70.88
36630;BME280;36256;42.154;23.002;2023-03-21T00:13:20;97010.56;;;10.48;69.86
36630;BME280;36256;42.154;23.002;2023-03-21T00:15:46;97002.88;;;10.40;71.67
36630;BME280;36256;42.154;23.002;2023-03-21T00:18:36;97013.38;;;10.26;72.89
36630;BME280;36256;42.154;23.002;2023-03-21T00:21:09;97015.28;;;10.08;72.93
36630;BME280;36256;42.154;23.002;2023-03-21T00:23:58;97022.66;;;9.93;73.41
36630;BME280;36256;42.154;23.002;2023-03-21T00:26:26;97020.78;;;9.90;73.62
36630;BME280;36256;42.154;23.002;2023-03-21T00:28:52;97028.56;;;9.95;72.34
36630;BME280;36256;42.154;23.002;2023-03-21T00:31:19;97024.28;;;10.03;71.71
36630;BME280;36256;42.154;23.002;2023-03-21T00:33:46;97020.88;;;10.08;73.71
36630;BME280;36256;42.154;23.002;2023-03-21T00:36:13;97023.50;;;10.02;74.44
36630;BME280;36256;42.154;23.002;2023-03-21T00:38:40;97015.16;;;9.90;74.76
36630;BME280;36256;42.154;23.002;2023-03-21T00:41:09;97029.09;;;9.81;75.05
36630;BME280;36256;42.154;23.002;2023-03-21T00:43:48;97028.78;;;9.79;74.71
36630;BME280;36256;42.154;23.002;2023-03-21T00:46:17;97023.81;;;9.83;74.11
36630;BME280;36256;42.154;23.002;2023-03-21T00:48:44;97026.94;;;9.85;74.75
36630;BME280;36256;42.154;23.002;2023-03-21T00:51:16;97037.97;;;9.79;77.35
36630;BME280;36256;42.154;23.002;2023-03-21T00:53:46;97037.66;;;9.77;78.28
36630;BME280;36256;42.154;23.002;2023-03-21T00:56:13;97033.16;;;9.80;80.18
36630;BME280;36256;42.154;23.002;2023-03-21T00:58:39;97032.63;;;9.72;79.95
36630;BME280;36256;42.154;23.002;2023-03-21T01:01:06;97034.94;;;9.74;79.25
36630;BME280;36256;42.154;23.002;2023-03-21T01:03:35;97027.22;;;9.78;77.34
36630;BME280;36256;42.154;23.002;2023-03-21T01:06:09;97026.63;;;9.83;75.76
36630;BME280;36256;42.154;23.002;2023-03-21T01:08:40;97014.91;;;9.75;76.81
36630;BME280;36256;42.154;23.002;2023-03-21T01:11:25;97020.50;;;9.75;76.07
36630;BME280;36256;42.154;23.002;2023-03-21T01:13:53;97013.72;;;9.85;75.15
36630;BME280;36256;42.154;23.002;2023-03-21T01:16:33;97010.75;;;9.80;75.65
36630;BME280;36256;42.154;23.002;2023-03-21T01:19:00;97019.97;;;9.89;79.48
36630;BME280;36256;42.154;23.002;2023-03-21T01:21:30;97016.22;;;9.83;78.88
36630;BME280;36256;42.154;23.002;2023-03-21T01:23:57;97012.69;;;9.70;79.28
36630;BME280;36256;42.154;23.002;2023-03-21T01:26:24;97021.22;;;9.67;78.90
36630;BME280;36256;42.154;23.002;2023-03-21T01:28:51;97015.06;;;9.59;79.36
36630;BME280;36256;42.154;23.002;2023-03-21T01:31:18;97016.44;;;9.55;80.25
36630;BME280;36256;42.154;23.002;2023-03-21T01:33:44;97019.38;;;9.51;81.55
36630;BME280;36256;42.154;23.002;2023-03-21T01:36:20;97019.16;;;9.45;82.45
36630;BME280;36256;42.154;23.002;2023-03-21T01:38:49;97015.38;;;9.39;82.03
36630;BME280;36256;42.154;23.002;2023-03-21T01:41:25;97020.75;;;9.34;81.36
36630;BME280;36256;42.154;23.002;2023-03-21T01:44:06;97014.84;;;9.32;81.54
36630;BME280;36256;42.154;23.002;2023-03-21T01:49:29;96997.63;;;9.21;81.36
36630;BME280;36256;42.154;23.002;2023-03-21T01:52:04;97002.97;;;9.28;82.40
36630;BME280;36256;42.154;23.002;2023-03-21T01:54:40;97001.44;;;9.27;83.69
36630;BME280;36256;42.154;23.002;2023-03-21T01:57:11;96996.84;;;9.20;83.77
36630;BME280;36256;42.154;23.002;2023-03-21T01:59:44;96997.50;;;9.24;84.34
36630;BME280;36256;42.154;23.002;2023-03-21T02:02:16;97005.00;;;9.27;84.24
36630;BME280;36256;42.154;23.002;2023-03-21T02:04:46;96976.94;;;9.18;81.96
36630;BME280;36256;42.154;23.002;2023-03-21T02:07:25;96993.56;;;9.34;80.50
36630;BME280;36256;42.154;23.002;2023-03-21T02:09:55;96986.47;;;9.42;79.19
36630;BME280;36256;42.154;23.002;2023-03-21T02:12:21;96985.81;;;9.38;78.48
36630;BME280;36256;42.154;23.002;2023-03-21T02:14:48;96988.41;;;9.33;80.37
36630;BME280;36256;42.154;23.002;2023-03-21T02:28:14;96990.66;;;8.91;82.92
36630;BME280;36256;42.154;23.002;2023-03-21T02:47:12;96994.25;;;8.54;85.18
36630;BME280;36256;42.154;23.002;2023-03-21T02:49:47;96992.72;;;8.53;83.66
36630;BME280;36256;42.154;23.002;2023-03-21T02:52:20;96994.25;;;8.54;83.13
36630;BME280;36256;42.154;23.002;2023-03-21T02:55:07;96996.38;;;8.50;83.51
36630;BME280;36256;42.154;23.002;2023-03-21T02:57:42;96992.25;;;8.54;83.43
36630;BME280;36256;42.154;23.002;2023-03-21T03:00:12;96987.13;;;8.53;83.35
36630;BME280;36256;42.154;23.002;2023-03-21T03:02:43;96976.81;;;8.50;82.86
36630;BME280;36256;42.154;23.002;2023-03-21T03:05:19;96981.63;;;8.49;82.79
36630;BME280;36256;42.154;23.002;2023-03-21T03:19:07;96991.47;;;8.29;87.30
36630;BME280;36256;42.154;23.002;2023-03-21T03:21:48;96993.00;;;8.17;86.96
36630;BME280;36256;42.154;23.002;2023-03-21T03:24:24;96986.34;;;7.99;86.48
36630;BME280;36256;42.154;23.002;2023-03-21T03:26:56;96981.97;;;7.72;88.38
36630;BME280;36256;42.154;23.002;2023-03-21T03:29:26;96987.53;;;7.72;88.64
36630;BME280;36256;42.154;23.002;2023-03-21T03:32:10;96974.44;;;7.69;88.86
36630;BME280;36256;42.154;23.002;2023-03-21T03:34:42;96976.56;;;7.65;89.08
36630;BME280;36256;42.154;23.002;2023-03-21T03:37:13;96967.97;;;7.60;88.19
36630;BME280;36256;42.154;23.002;2023-03-21T03:42:37;96980.34;;;7.59;89.59
36630;BME280;36256;42.154;23.002;2023-03-21T03:45:06;96982.56;;;7.51;89.02
36630;BME280;36256;42.154;23.002;2023-03-21T03:47:54;96978.59;;;7.36;89.76
36630;BME280;36256;42.154;23.002;2023-03-21T03:50:25;96974.97;;;7.23;90.98
36630;BME280;36256;42.154;23.002;2023-03-21T03:53:04;96969.38;;;7.23;90.52
36630;BME280;36256;42.154;23.002;2023-03-21T03:55:43;96968.28;;;7.33;91.34
36630;BME280;36256;42.154;23.002;2023-03-21T03:58:11;96957.06;;;7.37;91.90
36630;BME280;36256;42.154;23.002;2023-03-21T04:00:48;96960.25;;;7.35;92.59
36630;BME280;36256;42.154;23.002;2023-03-21T04:03:15;96950.75;;;7.20;92.87
36630;BME280;36256;42.154;23.002;2023-03-21T04:05:42;96960.13;;;7.26;93.31
36630;BME280;36256;42.154;23.002;2023-03-21T04:08:12;96964.63;;;7.36;91.80
36630;BME280;36256;42.154;23.002;2023-03-21T04:10:40;96948.53;;;7.28;91.02
36630;BME280;36256;42.154;23.002;2023-03-21T04:13:08;96967.25;;;7.43;90.43
36630;BME280;36256;42.154;23.002;2023-03-21T04:15:35;96967.25;;;7.43;90.62
36630;BME280;36256;42.154;23.002;2023-03-21T04:18:02;96946.66;;;7.37;90.42
36630;BME280;36256;42.154;23.002;2023-03-21T04:20:29;96970.84;;;7.56;89.07
36630;BME280;36256;42.154;23.002;2023-03-21T04:23:03;96972.66;;;7.63;89.93
36630;BME280;36256;42.154;23.002;2023-03-21T04:25:33;96973.09;;;7.61;88.90
36630;BME280;36256;42.154;23.002;2023-03-21T04:28:00;96967.84;;;7.63;88.74
36630;BME280;36256;42.154;23.002;2023-03-21T04:30:27;96977.59;;;7.71;88.43
36630;BME280;36256;42.154;23.002;2023-03-21T04:32:53;96971.13;;;7.74;87.77
36630;BME280;36256;42.154;23.002;2023-03-21T04:35:23;96978.06;;;7.82;86.64
36630;BME280;36256;42.154;23.002;2023-03-21T04:37:50;96975.59;;;7.84;85.90
36630;BME280;36256;42.154;23.002;2023-03-21T04:40:16;96981.88;;;7.88;85.96
36630;BME280;36256;42.154;23.002;2023-03-21T04:42:46;96981.31;;;7.81;86.12
36630;BME280;36256;42.154;23.002;2023-03-21T04:45:14;96978.63;;;7.90;87.27
36630;BME280;36256;42.154;23.002;2023-03-21T04:47:41;96960.63;;;7.78;87.56
36630;BME280;36256;42.154;23.002;2023-03-21T04:50:09;96982.53;;;7.92;88.37
36630;BME280;36256;42.154;23.002;2023-03-21T04:52:36;96980.88;;;7.95;89.26
36630;BME280;36256;42.154;23.002;2023-03-21T04:55:04;96980.09;;;7.94;90.44
36630;BME280;36256;42.154;23.002;2023-03-21T04:57:31;96980.75;;;7.99;89.86
36630;BME280;36256;42.154;23.002;2023-03-21T04:59:57;96982.53;;;7.92;91.81
36630;BME280;36256;42.154;23.002;2023-03-21T05:02:24;96976.88;;;7.96;91.07
36630;BME280;36256;42.154;23.002;2023-03-21T05:04:51;96963.44;;;7.91;91.25
36630;BME280;36256;42.154;23.002;2023-03-21T05:07:17;96967.91;;;7.88;91.36
36630;BME280;36256;42.154;23.002;2023-03-21T05:09:44;96972.69;;;7.88;91.28
36630;BME280;36256;42.154;23.002;2023-03-21T05:12:10;96968.44;;;7.83;90.09
36630;BME280;36256;42.154;23.002;2023-03-21T05:14:37;96974.25;;;7.76;90.10
36630;BME280;36256;42.154;23.002;2023-03-21T05:17:04;96971.13;;;7.74;90.61
36630;BME280;36256;42.154;23.002;2023-03-21T05:19:31;96974.25;;;7.76;90.48
36630;BME280;36256;42.154;23.002;2023-03-21T05:22:06;96974.72;;;7.87;90.18
36630;BME280;36256;42.154;23.002;2023-03-21T05:24:34;96974.72;;;7.87;89.57
36630;BME280;36256;42.154;23.002;2023-03-21T05:27:02;96982.78;;;7.85;89.48
36630;BME280;36256;42.154;23.002;2023-03-21T05:29:30;96985.13;;;8.00;89.62
36630;BME280;36256;42.154;23.002;2023-03-21T05:31:58;96986.81;;;8.10;88.97
36630;BME280;36256;42.154;23.002;2023-03-21T05:34:26;96994.09;;;8.20;88.58
36630;BME280;36256;42.154;23.002;2023-03-21T05:36:53;96993.38;;;8.32;87.37
36630;BME280;36256;42.154;23.002;2023-03-21T05:39:20;96997.03;;;8.29;86.88
36630;BME280;36256;42.154;23.002;2023-03-21T05:41:48;96986.03;;;8.22;87.43
36630;BME280;36256;42.154;23.002;2023-03-21T05:44:14;96982.03;;;8.10;86.44
36630;BME280;36256;42.154;23.002;2023-03-21T05:46:41;97001.59;;;8.23;86.20
36630;BME280;36256;42.154;23.002;2023-03-21T05:49:09;97003.44;;;8.29;86.38
36630;BME280;36256;42.154;23.002;2023-03-21T05:51:36;96992.63;;;8.03;87.03
36630;BME280;36256;42.154;23.002;2023-03-21T05:54:03;96991.41;;;8.16;87.83
36630;BME280;36256;42.154;23.002;2023-03-21T05:56:29;96994.81;;;8.36;88.08
36630;BME280;36256;42.154;23.002;2023-03-21T05:58:56;96990.00;;;8.49;86.26
36630;BME280;36256;42.154;23.002;2023-03-21T06:01:23;96991.78;;;8.56;84.53
36630;BME280;36256;42.154;23.002;2023-03-21T06:03:49;96997.50;;;8.52;84.70
36630;BME280;36256;42.154;23.002;2023-03-21T06:06:16;96988.88;;;8.72;83.75
36630;BME280;36256;42.154;23.002;2023-03-21T06:08:43;96993.56;;;8.75;83.42
36630;BME280;36256;42.154;23.002;2023-03-21T06:11:40;96983.97;;;8.76;82.00
36630;BME280;36256;42.154;23.002;2023-03-21T06:14:04;96989.75;;;8.94;82.12
36630;BME280;36256;42.154;23.002;2023-03-21T06:16:31;96998.56;;;9.05;81.25
36630;BME280;36256;42.154;23.002;2023-03-21T06:18:58;96996.19;;;9.16;80.38
36630;BME280;36256;42.154;23.002;2023-03-21T06:21:24;96991.13;;;9.24;80.88
36630;BME280;36256;42.154;23.002;2023-03-21T06:23:52;96992.81;;;9.21;80.77
36630;BME280;36256;42.154;23.002;2023-03-21T06:26:19;96991.25;;;9.20;81.59
36630;BME280;36256;42.154;23.002;2023-03-21T06:28:51;96995.03;;;9.26;80.15
36630;BME280;36256;42.154;23.002;2023-03-21T06:31:19;96998.81;;;9.32;81.06
36630;BME280;36256;42.154;23.002;2023-03-21T06:33:48;96973.94;;;9.34;79.01
36630;BME280;36256;42.154;23.002;2023-03-21T06:36:15;96976.78;;;9.56;79.15
36630;BME280;36256;42.154;23.002;2023-03-21T06:38:41;96983.50;;;9.59;80.29
36630;BME280;36256;42.154;23.002;2023-03-21T06:41:08;96970.78;;;9.67;78.63
36630;BME280;36256;42.154;23.002;2023-03-21T06:43:35;96968.88;;;9.64;78.42
36630;BME280;36256;42.154;23.002;2023-03-21T06:46:02;96979.72;;;9.74;78.30
36630;BME280;36256;42.154;23.002;2023-03-21T06:48:29;96982.03;;;9.76;77.59
36630;BME280;36256;42.154;23.002;2023-03-21T06:50:56;96986.75;;;9.79;77.71
36630;BME280;36256;42.154;23.002;2023-03-21T06:53:24;96985.19;;;9.78;77.34
36630;BME280;36256;42.154;23.002;2023-03-21T06:55:53;96996.66;;;9.92;78.67
36630;BME280;36256;42.154;23.002;2023-03-21T06:58:20;96999.38;;;10.05;78.73
36630;BME280;36256;42.154;23.002;2023-03-21T07:00:47;96991.19;;;10.10;79.31
36630;BME280;36256;42.154;23.002;2023-03-21T07:03:14;96995.88;;;10.13;78.73
36630;BME280;36256;42.154;23.002;2023-03-21T07:05:41;96995.75;;;10.17;78.86
36630;BME280;36256;42.154;23.002;2023-03-21T07:08:08;96988.25;;;10.14;77.06
36630;BME280;36256;42.154;23.002;2023-03-21T07:10:41;96997.19;;;10.21;76.75
36630;BME280;36256;42.154;23.002;2023-03-21T07:13:10;97004.88;;;10.30;77.60
36630;BME280;36256;42.154;23.002;2023-03-21T07:15:37;96996.78;;;10.32;77.19
36630;BME280;36256;42.154;23.002;2023-03-21T07:18:04;97005.00;;;10.05;77.93
36630;BME280;36256;42.154;23.002;2023-03-21T07:20:31;97012.38;;;10.11;77.58
36630;BME280;36256;42.154;23.002;2023-03-21T07:22:58;97013.47;;;10.14;76.98
36630;BME280;36256;42.154;23.002;2023-03-21T07:25:26;97014.66;;;10.25;78.31
36630;BME280;36256;42.154;23.002;2023-03-21T07:27:53;97002.69;;;10.34;75.54
36630;BME280;36256;42.154;23.002;2023-03-21T07:30:19;96992.28;;;10.44;74.65
36630;BME280;36256;42.154;23.002;2023-03-21T07:32:46;96986.47;;;10.60;73.78
36630;BME280;36256;42.154;23.002;2023-03-21T07:35:15;96992.72;;;10.64;73.61
36630;BME280;36256;42.154;23.002;2023-03-21T07:37:43;96991.28;;;10.59;73.85
36630;BME280;36256;42.154;23.002;2023-03-21T07:40:11;96988.19;;;10.66;74.11
36630;BME280;36256;42.154;23.002;2023-03-21T07:42:39;97002.66;;;10.65;74.39
36630;BME280;36256;42.154;23.002;2023-03-21T07:45:08;96985.91;;;10.83;74.61
36630;BME280;36256;42.154;23.002;2023-03-21T07:47:35;96988.72;;;10.83;74.68
36630;BME280;36256;42.154;23.002;2023-03-21T07:50:02;96978.72;;;10.82;75.17
36630;BME280;36256;42.154;23.002;2023-03-21T07:52:30;96987.31;;;10.78;75.15
36630;BME280;36256;42.154;23.002;2023-03-21T07:54:57;96993.13;;;11.02;76.06
36630;BME280;36256;42.154;23.002;2023-03-21T07:57:23;96990.41;;;11.38;75.30
36630;BME280;36256;42.154;23.002;2023-03-21T07:59:50;96983.69;;;11.81;70.72
36630;BME280;36256;42.154;23.002;2023-03-21T08:02:17;96978.63;;;12.30;69.13
36630;BME280;36256;42.154;23.002;2023-03-21T08:04:44;96974.50;;;12.49;67.77
36630;BME280;36256;42.154;23.002;2023-03-21T08:07:10;96965.59;;;12.84;66.26
36630;BME280;36256;42.154;23.002;2023-03-21T08:09:37;96957.16;;;13.07;66.52
36630;BME280;36256;42.154;23.002;2023-03-21T08:12:04;96954.50;;;13.36;62.97
36630;BME280;36256;42.154;23.002;2023-03-21T08:14:34;96952.38;;;13.46;62.12
36630;BME280;36256;42.154;23.002;2023-03-21T08:17:05;96936.56;;;13.63;61.91
36630;BME280;36256;42.154;23.002;2023-03-21T08:19:32;96931.38;;;14.00;60.29
36630;BME280;36256;42.154;23.002;2023-03-21T08:21:58;96924.59;;;14.36;59.18
36630;BME280;36256;42.154;23.002;2023-03-21T08:24:26;96927.25;;;14.74;58.07
36630;BME280;36256;42.154;23.002;2023-03-21T08:26:53;96914.13;;;14.91;55.30
36630;BME280;36256;42.154;23.002;2023-03-21T08:29:20;96898.56;;;15.16;54.61
36630;BME280;36256;42.154;23.002;2023-03-21T08:31:47;96893.81;;;15.07;54.28
36630;BME280;36256;42.154;23.002;2023-03-21T08:34:14;96866.34;;;15.08;53.44
36630;BME280;36256;42.154;23.002;2023-03-21T08:36:40;96885.22;;;15.16;53.91
36630;BME280;36256;42.154;23.002;2023-03-21T08:39:07;96893.84;;;15.47;55.23
36630;BME280;36256;42.154;23.002;2023-03-21T08:41:35;96889.75;;;16.00;57.63
36630;BME280;36256;42.154;23.002;2023-03-21T08:44:04;96861.84;;;16.44;50.33
36630;BME280;36256;42.154;23.002;2023-03-21T08:46:31;96861.00;;;16.69;51.63
36630;BME280;36256;42.154;23.002;2023-03-21T08:48:58;96853.91;;;16.90;52.02
36630;BME280;36256;42.154;23.002;2023-03-21T08:51:25;96853.00;;;17.10;49.71
36630;BME280;36256;42.154;23.002;2023-03-21T08:53:51;96843.25;;;17.16;49.28
36630;BME280;36256;42.154;23.002;2023-03-21T08:56:18;96868.28;;;16.81;48.43
36630;BME280;36256;42.154;23.002;2023-03-21T08:58:45;96871.81;;;16.34;49.31
36630;BME280;36256;42.154;23.002;2023-03-21T09:01:12;96869.41;;;16.53;48.40
36630;BME280;36256;42.154;23.002;2023-03-21T09:03:41;96869.00;;;16.71;47.87
36630;BME280;36256;42.154;23.002;2023-03-21T09:06:09;96863.81;;;17.11;46.61
36630;BME280;36256;42.154;23.002;2023-03-21T09:08:37;96839.56;;;17.69;45.52
36630;BME280;36256;42.154;23.002;2023-03-21T09:11:04;96833.16;;;18.35;44.49
36630;BME280;36256;42.154;23.002;2023-03-21T09:13:31;96834.94;;;18.71;46.35
36630;BME280;36256;42.154;23.002;2023-03-21T09:15:57;96873.09;;;19.09;42.81
36630;BME280;36256;42.154;23.002;2023-03-21T09:18:27;96877.47;;;19.27;44.11
36630;BME280;36256;42.154;23.002;2023-03-21T09:21:26;96871.88;;;18.83;43.53
36630;BME280;36256;42.154;23.002;2023-03-21T09:23:54;96890.75;;;18.80;43.40
36630;BME280;36256;42.154;23.002;2023-03-21T09:26:22;96891.03;;;18.65;43.30
36630;BME280;36256;42.154;23.002;2023-03-21T09:28:49;96894.16;;;18.45;44.45
36630;BME280;36256;42.154;23.002;2023-03-21T09:31:16;96898.50;;;18.63;43.98
36630;BME280;36256;42.154;23.002;2023-03-21T09:33:48;96878.63;;;18.46;45.73
36630;BME280;36256;42.154;23.002;2023-03-21T09:36:16;96897.75;;;18.62;44.19
36630;BME280;36256;42.154;23.002;2023-03-21T09:38:45;96885.88;;;18.64;43.38
36630;BME280;36256;42.154;23.002;2023-03-21T09:47:36;96878.53;;;19.24;43.13
36630;BME280;36256;42.154;23.002;2023-03-21T09:50:21;96875.66;;;19.35;41.29
36630;BME280;36256;42.154;23.002;2023-03-21T09:53:26;96876.19;;;19.22;41.97
36630;BME280;36256;42.154;23.002;2023-03-21T09:55:56;96870.25;;;19.15;42.25
36630;BME280;36256;42.154;23.002;2023-03-21T09:58:24;96858.84;;;19.26;41.75
36630;BME280;36256;42.154;23.002;2023-03-21T10:01:18;96858.34;;;19.16;42.15
36630;BME280;36256;42.154;23.002;2023-03-21T10:03:54;96849.59;;;19.09;43.16
36630;BME280;36256;42.154;23.002;2023-03-21T10:06:23;96833.06;;;19.02;44.05
36630;BME280;36256;42.154;23.002;2023-03-21T10:09:00;96835.88;;;19.13;45.03
36630;BME280;36256;42.154;23.002;2023-03-21T10:14:30;96840.19;;;19.30;42.85
36630;BME280;36256;42.154;23.002;2023-03-21T10:18:01;96841.78;;;19.26;42.69
36630;BME280;36256;42.154;23.002;2023-03-21T10:22:37;96825.31;;;19.02;42.97
36630;BME280;36256;42.154;23.002;2023-03-21T10:25:05;96824.09;;;18.81;43.46
36630;BME280;36256;42.154;23.002;2023-03-21T10:27:34;96826.38;;;18.94;47.43
36630;BME280;36256;42.154;23.002;2023-03-21T10:30:03;96823.31;;;18.80;45.62
36630;BME280;36256;42.154;23.002;2023-03-21T10:32:33;96818.13;;;18.85;45.79
36630;BME280;36256;42.154;23.002;2023-03-21T10:35:01;96816.59;;;18.84;44.66
36630;BME280;36256;42.154;23.002;2023-03-21T10:37:30;96811.69;;;18.78;45.29
36630;BME280;36256;42.154;23.002;2023-03-21T10:39:58;96812.78;;;18.53;42.90
36630;BME280;36256;42.154;23.002;2023-03-21T10:42:27;96806.53;;;18.71;42.98
36630;BME280;36256;42.154;23.002;2023-03-21T10:44:55;96807.00;;;18.87;40.61
36630;BME280;36256;42.154;23.002;2023-03-21T10:47:30;96796.16;;;18.91;40.31
36630;BME280;36256;42.154;23.002;2023-03-21T10:50:16;96790.13;;;19.11;41.88
36630;BME280;36256;42.154;23.002;2023-03-21T10:52:48;96780.28;;;19.12;40.35
36630;BME280;36256;42.154;23.002;2023-03-21T10:55:30;96783.84;;;19.29;39.95
36630;BME280;36256;42.154;23.002;2023-03-21T10:58:01;96786.69;;;19.34;40.90
36630;BME280;36256;42.154;23.002;2023-03-21T11:00:36;96778.63;;;19.33;39.35
36630;BME280;36256;42.154;23.002;2023-03-21T11:03:04;96763.97;;;19.23;39.22
36630;BME280;36256;42.154;23.002;2023-03-21T11:08:10;96772.75;;;19.25;38.71
36630;BME280;36256;42.154;23.002;2023-03-21T11:13:23;96764.28;;;19.09;38.83
36630;BME280;36256;42.154;23.002;2023-03-21T11:15:54;96762.78;;;19.02;38.44
36630;BME280;36256;42.154;23.002;2023-03-21T11:18:25;96757.06;;;19.08;38.45
36630;BME280;36256;42.154;23.002;2023-03-21T11:23:25;96757.06;;;19.08;37.97
36630;BME280;36256;42.154;23.002;2023-03-21T11:25:52;96749.00;;;19.12;37.79
36630;BME280;36256;42.154;23.002;2023-03-21T11:28:23;96759.84;;;19.19;37.33
36630;BME280;36256;42.154;23.002;2023-03-21T11:30:56;96757.22;;;19.26;38.99
36630;BME280;36256;42.154;23.002;2023-03-21T11:33:32;96756.66;;;19.39;39.54
36630;BME280;36256;42.154;23.002;2023-03-21T11:36:00;96751.44;;;19.43;39.04
36630;BME280;36256;42.154;23.002;2023-03-21T11:38:36;96750.72;;;19.37;37.87
36630;BME280;36256;42.154;23.002;2023-03-21T11:41:04;96743.00;;;19.26;38.29
36630;BME280;36256;42.154;23.002;2023-03-21T11:43:36;96735.78;;;19.20;36.78
36630;BME280;36256;42.154;23.002;2023-03-21T11:48:39;96733.00;;;19.09;35.65
36630;BME280;36256;42.154;23.002;2023-03-21T11:51:16;96733.50;;;19.07;35.07
36630;BME280;36256;42.154;23.002;2023-03-21T11:53:52;96727.34;;;19.03;36.26
36630;BME280;36256;42.154;23.002;2023-03-21T11:56:31;96711.84;;;18.99;36.18
36630;BME280;36256;42.154;23.002;2023-03-21T12:07:23;96723.66;;;19.14;37.70
36630;BME280;36256;42.154;23.002;2023-03-21T12:09:59;96711.84;;;19.04;37.33
36630;BME280;36256;42.154;23.002;2023-03-21T12:20:52;96712.41;;;18.86;37.63
36630;BME280;36256;42.154;23.002;2023-03-21T12:23:30;96702.06;;;18.94;37.55
36630;BME280;36256;42.154;23.002;2023-03-21T12:26:22;96704.34;;;19.07;37.04
36630;BME280;36256;42.154;23.002;2023-03-21T12:37:22;96697.56;;;18.58;37.49
36630;BME280;36256;42.154;23.002;2023-03-21T12:40:00;96693.69;;;18.55;37.75
36630;BME280;36256;42.154;23.002;2023-03-21T12:42:49;96707.41;;;18.51;38.92
36630;BME280;36256;42.154;23.002;2023-03-21T12:45:22;96698.34;;;18.58;38.82
36630;BME280;36256;42.154;23.002;2023-03-21T12:47:58;96695.50;;;18.42;38.30
36630;BME280;36256;42.154;23.002;2023-03-21T12:50:32;96698.09;;;18.40;38.95
36630;BME280;36256;42.154;23.002;2023-03-21T12:53:29;96698.38;;;18.36;38.32
36630;BME280;36256;42.154;23.002;2023-03-21T12:56:04;96687.03;;;18.25;39.32
36630;BME280;36256;42.154;23.002;2023-03-21T12:58:43;96687.84;;;18.20;39.33
36630;BME280;36256;42.154;23.002;2023-03-21T13:01:12;96690.13;;;18.27;39.02
36630;BME280;36256;42.154;23.002;2023-03-21T13:03:45;96682.41;;;18.22;39.26
36630;BME280;36256;42.154;23.002;2023-03-21T13:06:17;96680.56;;;18.25;40.16
36630;BME280;36256;42.154;23.002;2023-03-21T13:09:07;96674.66;;;18.28;40.60
36630;BME280;36256;42.154;23.002;2023-03-21T13:11:37;96676.19;;;18.29;40.88
36630;BME280;36256;42.154;23.002;2023-03-21T13:14:10;96679.78;;;18.35;40.24
36630;BME280;36256;42.154;23.002;2023-03-21T13:16:52;96676.72;;;18.22;40.13
36630;BME280;36256;42.154;23.002;2023-03-21T13:19:46;96670.56;;;18.18;40.18
36630;BME280;36256;42.154;23.002;2023-03-21T13:22:27;96661.25;;;18.18;40.26
36630;BME280;36256;42.154;23.002;2023-03-21T13:27:52;96658.38;;;18.29;40.15
36630;BME280;36256;42.154;23.002;2023-03-21T13:30:24;96649.34;;;18.30;39.89
36630;BME280;36256;42.154;23.002;2023-03-21T13:33:13;96631.28;;;18.28;40.45
36630;BME280;36256;42.154;23.002;2023-03-21T13:35:42;96635.63;;;18.45;41.00
36630;BME280;36256;42.154;23.002;2023-03-21T13:38:24;96632.47;;;18.54;41.95
36630;BME280;36256;42.154;23.002;2023-03-21T13:41:12;96623.66;;;18.69;43.03
36630;BME280;36256;42.154;23.002;2023-03-21T13:49:01;96625.22;;;18.64;39.97
36630;BME280;36256;42.154;23.002;2023-03-21T13:51:42;96620.88;;;18.52;39.75
36630;BME280;36256;42.154;23.002;2023-03-21T14:01:40;96633.31;;;18.38;41.00
36630;BME280;36256;42.154;23.002;2023-03-21T14:04:16;96639.00;;;18.27;40.80
36630;BME280;36256;42.154;23.002;2023-03-21T14:06:52;96638.00;;;18.19;40.85
36630;BME280;36256;42.154;23.002;2023-03-21T14:11:50;96632.34;;;18.08;41.35
36630;BME280;36256;42.154;23.002;2023-03-21T14:14:25;96636.25;;;18.05;40.71
36630;BME280;36256;42.154;23.002;2023-03-21T14:16:53;96642.97;;;17.96;40.97
36630;BME280;36256;42.154;23.002;2023-03-21T14:19:28;96643.78;;;17.75;41.49
36630;BME280;36256;42.154;23.002;2023-03-21T14:21:55;96630.91;;;17.74;42.29
36630;BME280;36256;42.154;23.002;2023-03-21T14:24:22;96639.41;;;17.63;41.50
36630;BME280;36256;42.154;23.002;2023-03-21T14:26:51;96642.25;;;17.63;41.63
36630;BME280;36256;42.154;23.002;2023-03-21T14:29:25;96647.91;;;17.63;41.63
36630;BME280;36256;42.154;23.002;2023-03-21T14:31:57;96636.81;;;17.59;41.06
36630;BME280;36256;42.154;23.002;2023-03-21T14:34:27;96637.88;;;17.51;41.12
36630;BME280;36256;42.154;23.002;2023-03-21T14:36:55;96638.63;;;17.46;40.79
36630;BME280;36256;42.154;23.002;2023-03-21T14:39:29;96633.97;;;17.43;41.17
36630;BME280;36256;42.154;23.002;2023-03-21T14:42:05;96633.97;;;17.43;41.26
36630;BME280;36256;42.154;23.002;2023-03-21T14:44:33;96626.75;;;17.42;41.06
36630;BME280;36256;42.154;23.002;2023-03-21T14:47:19;96636.53;;;17.41;40.60
36630;BME280;36256;42.154;23.002;2023-03-21T14:49:47;96632.94;;;17.40;41.24
36630;BME280;36256;42.154;23.002;2023-03-21T14:52:23;96628.31;;;17.32;41.21
36630;BME280;36256;42.154;23.002;2023-03-21T14:54:51;96632.66;;;17.16;40.75
36630;BME280;36256;42.154;23.002;2023-03-21T14:57:22;96635.47;;;16.99;40.16
36630;BME280;36256;42.154;23.002;2023-03-21T14:59:52;96634.44;;;16.91;40.03
36630;BME280;36256;42.154;23.002;2023-03-21T15:02:24;96640.38;;;16.93;40.49
36630;BME280;36256;42.154;23.002;2023-03-21T15:04:55;96628.78;;;16.97;40.21